• Join FlightAware (Why Join?)
  • Login
  • US Flag 
11:39PM EDT


 

Airport Tracker/Info


-or-


 

Live Flight TrackerFlight Track Log ✈ EMD21 ✈ 08-Jun-2013 ✈ KMLC - KFSM

Flight Track Log - Related Links

Times and Time Zones

All times are in EDT time to prevent confusion due to time zone crossing. See the EMD21 flight status page for this flight to view local times or setup timezone preferences in your user account.

Time Position Orientation Groundspeed Altitude Reporting Facility
EDT Latitude Longitude Course Direction KTS MPH feet Rate Location/Type
04:06PM 34.8775 -95.7050 67° East 219 252 4,700  Level Fort Worth Center
04:07PM 34.8956 -95.6592 64° Northeast 179 206 5,900 1,140 Climbing Fort Worth Center
04:08PM 34.9136 -95.6108 65° Northeast 162 186 7,000 540 Climbing Fort Worth Center
04:09PM 34.9314 -95.5522 70° East 162 186 7,000  Level Fort Worth Center
04:10PM 34.9725 -95.4685 67° East  Level FlightAware Approximate
04:10PM 34.9556 -95.4806 68° East 191 220 7,000  Level Fort Worth Center
04:11PM 34.9906 -95.4161 67° East  Level FlightAware Approximate
04:11PM 34.9836 -95.4117 64° Northeast 215 247 7,000  Level Fort Worth Center
04:13PM 35.0141 -95.3284 66° East  Level FlightAware Approximate
04:20PM 35.1667 -94.8870 70° East  Level FlightAware Approximate
04:21PM 35.1856 -94.8225 70° East  Level FlightAware Approximate
04:22PM 35.2046 -94.7580 70° East  Level FlightAware Approximate
04:23PM 35.2243 -94.6938 68° East  Level FlightAware Approximate
04:24PM 35.2455 -94.6303 68° East  Level FlightAware Approximate
04:25PM 35.2667 -94.5668 68° East  Level FlightAware Approximate
04:26PM 35.2862 -94.5026 76° East  Level FlightAware Approximate
04:27PM 35.2995 -94.4359 76° East  Level FlightAware Approximate
04:28PM 35.3282 -94.3770 58° Northeast  Level FlightAware Approximate
04:29PM 35.3333 -94.3667 58° Northeast  Level FlightAware Approximate
04:30PM 35.3366 -94.3674 58° Northeast  Level Estimated
04:31PM 35.3333 -94.3667 58° Northeast  Level FlightAware Approximate
04:32PM 35.3366 -94.3674 58° Northeast  Level Estimated